地図

経路データ

SID SEASON NUMBER BASIN SUBBASIN NAME ISO_TIME NATURE LAT LON WMO_WIND WMO_PRES WMO_AGENCY TRACK_TYPE DIST2LAND LANDFALL IFLAG USA_AGENCY USA_ATCF_ID USA_LAT USA_LON USA_RECORD USA_STATUS USA_WIND USA_PRES USA_SSHS USA_R34_NE USA_R34_SE USA_R34_SW USA_R34_NW USA_R50_NE USA_R50_SE USA_R50_SW USA_R50_NW USA_R64_NE USA_R64_SE USA_R64_SW USA_R64_NW USA_POCI USA_ROCI USA_RMW USA_EYE TOKYO_LAT TOKYO_LON TOKYO_GRADE TOKYO_WIND TOKYO_PRES TOKYO_R50_DIR TOKYO_R50_LONG TOKYO_R50_SHORT TOKYO_R30_DIR TOKYO_R30_LONG TOKYO_R30_SHORT TOKYO_LAND CMA_LAT CMA_LON CMA_CAT CMA_WIND CMA_PRES HKO_LAT HKO_LON HKO_CAT HKO_WIND HKO_PRES NEWDELHI_LAT NEWDELHI_LON NEWDELHI_GRADE NEWDELHI_WIND NEWDELHI_PRES NEWDELHI_CI NEWDELHI_DP NEWDELHI_POCI REUNION_LAT REUNION_LON REUNION_TYPE REUNION_WIND REUNION_PRES REUNION_TNUM REUNION_CI REUNION_RMW REUNION_R34_NE REUNION_R34_SE REUNION_R34_SW REUNION_R34_NW REUNION_R50_NE REUNION_R50_SE REUNION_R50_SW REUNION_R50_NW REUNION_R64_NE REUNION_R64_SE REUNION_R64_SW REUNION_R64_NW BOM_LAT BOM_LON BOM_TYPE BOM_WIND BOM_PRES BOM_TNUM BOM_CI BOM_RMW BOM_R34_NE BOM_R34_SE BOM_R34_SW BOM_R34_NW BOM_R50_NE BOM_R50_SE BOM_R50_SW BOM_R50_NW BOM_R64_NE BOM_R64_SE BOM_R64_SW BOM_R64_NW BOM_ROCI BOM_POCI BOM_EYE BOM_POS_METHOD BOM_PRES_METHOD NADI_LAT NADI_LON NADI_CAT NADI_WIND NADI_PRES WELLINGTON_LAT WELLINGTON_LON WELLINGTON_WIND WELLINGTON_PRES DS824_LAT DS824_LON DS824_STAGE DS824_WIND DS824_PRES TD9636_LAT TD9636_LON TD9636_STAGE TD9636_WIND TD9636_PRES TD9635_LAT TD9635_LON TD9635_WIND TD9635_PRES TD9635_ROCI NEUMANN_LAT NEUMANN_LON NEUMANN_CLASS NEUMANN_WIND NEUMANN_PRES MLC_LAT MLC_LON MLC_CLASS MLC_WIND MLC_PRES USA_GUST BOM_GUST BOM_GUST_PER REUNION_GUST REUNION_GUST_PER USA_SEAHGT USA_SEARAD_NE USA_SEARAD_SE USA_SEARAD_SW USA_SEARAD_NW STORM_SPEED STORM_DIR
1899194N23089 1899 17 NI BB NOT_NAMED 1899-07-13 00:00:00 TS 22.5000 89.3000 main 0 0 _________O____ -1 22.5000 89.3000 TC 30 1 293
1899194N23089 1899 17 NI BB NOT_NAMED 1899-07-13 03:00:00 TS 22.5267 89.2250 main 0 0 _________PO___ -1 22.5400 89.1875 TC 30 22.5000 89.3000 1 2 302
1899194N23089 1899 17 NI BB NOT_NAMED 1899-07-13 06:00:00 TS 22.5888 89.1482 main 0 0 _________OP___ -1 22.6000 89.1000 TC 30 22.5719 89.2204 1 2 319
1899194N23089 1899 17 NI BB NOT_NAMED 1899-07-13 09:00:00 TS 22.6722 89.0897 main 0 0 _________PP___ -1 22.6925 89.0500 TC 30 22.6451 89.1426 1 2 328
1899194N23089 1899 17 NI BB NOT_NAMED 1899-07-13 12:00:00 TS 22.7603 89.0343 main 0 0 _________OP___ -1 22.8000 89.0000 TC 30 22.7207 89.0685 1 2 324
1899194N23089 1899 17 NI BB NOT_NAMED 1899-07-13 15:00:00 TS 22.8500 88.9500 main 0 0 _________PO___ -1 22.9000 88.9000 TC 30 22.8000 89.0000 1 2 320
1899194N23089 1899 17 NI BB NOT_NAMED 1899-07-13 18:00:00 TS 22.9423 88.8685 main 0 0 _________OP___ -1 23.0000 88.8000 TC 30 22.8846 88.9371 1 2 326
1899194N23089 1899 17 NI BB NOT_NAMED 1899-07-13 21:00:00 TS 23.0349 88.8148 main 0 0 _________PP___ -1 23.0925 88.7574 TC 30 22.9774 88.8723 1 2 331
1899194N23089 1899 17 NI BB NOT_NAMED 1899-07-14 00:00:00 TS 23.1407 88.7482 main 0 0 _________OP___ -1 23.2000 88.7000 TC 30 23.0815 88.7964 1 3 324
1899194N23089 1899 17 NI BB NOT_NAMED 1899-07-14 03:00:00 TS 23.2713 88.6325 main 0 0 _________PO___ -1 23.3425 88.5650 TC 30 23.2000 88.7000 1 4 319
1899194N23089 1899 17 NI BB NOT_NAMED 1899-07-14 06:00:00 TS 23.4158 88.4858 main 0 0 _________OP___ -1 23.5000 88.4000 TC 30 23.3316 88.5716 1 4 317
1899194N23089 1899 17 NI BB NOT_NAMED 1899-07-14 09:00:00 TS 23.5638 88.3362 main 0 0 _________PP___ -1 23.6500 88.2500 TC 30 23.4776 88.4225 1 4 317
1899194N23089 1899 17 NI BB NOT_NAMED 1899-07-14 12:00:00 TS 23.7174 88.1811 main 0 0 _________OP___ -1 23.8000 88.1000 TC 30 23.6347 88.2622 1 4 317
1899194N23089 1899 17 NI BB NOT_NAMED 1899-07-14 15:00:00 TS 23.8712 88.0250 main 0 0 _________PO___ -1 23.9425 87.9499 TC 30 23.8000 88.1000 1 4 321
1899194N23089 1899 17 NI BB NOT_NAMED 1899-07-14 18:00:00 TS 24.0130 87.9166 main 0 0 _________OP___ -1 24.1000 87.8000 TC 30 23.9260 88.0332 1 3 329
1899194N23089 1899 17 NI BB NOT_NAMED 1899-07-14 21:00:00 TS 24.1562 87.8390 main 0 0 _________PP___ -1 24.2470 87.7241 TC 30 24.0654 87.9540 1 4 326
1899194N23089 1899 17 NI BB NOT_NAMED 1899-07-15 00:00:00 TS 24.3736 87.6490 main 0 0 _________OP___ -1 24.5000 87.5000 TC 30 24.2472 87.7979 1 8 316
1899194N23089 1899 17 NI BB NOT_NAMED 1899-07-15 03:00:00 TS 24.7389 87.2167 main 0 0 _________PO___ -1 24.9778 86.9334 TC 30 24.5000 87.5000 1 13 311
1899194N23089 1899 17 NI BB NOT_NAMED 1899-07-15 06:00:00 TS 25.1931 86.6014 main 0 0 _________OP___ -1 25.5000 86.2000 TC 30 24.8862 87.0028 1 14 307
1899194N23089 1899 17 NI BB NOT_NAMED 1899-07-15 09:00:00 TS 25.6076 85.9389 main 0 0 _________PP___ -1 25.8795 85.5218 TC 30 25.3356 86.3560 1 15 302
1899194N23089 1899 17 NI BB NOT_NAMED 1899-07-15 12:00:00 TS 25.9960 85.2029 main 0 0 _________OP___ -1 26.2000 84.8000 TC 30 25.7920 85.6058 1 16 299
1899194N23089 1899 17 NI BB NOT_NAMED 1899-07-15 15:00:00 TS 26.3648 84.4112 main 0 0 _________PO___ -1 26.5297 84.0225 TC 30 26.2000 84.8000 1 15 295
1899194N23089 1899 17 NI BB NOT_NAMED 1899-07-15 18:00:00 TS 26.6389 83.6459 main 0 0 _________OP___ -1 26.8000 83.2000 TC 30 26.5181 83.9803 1 15 289
1899194N23089 1899 17 NI BB NOT_NAMED 1899-07-15 21:00:00 TS 26.8461 82.8358 main 0 0 _________PP___ -1 26.9785 82.3551 TC 30 26.7578 83.1563 1 15 284
1899194N23089 1899 17 NI BB NOT_NAMED 1899-07-16 00:00:00 TS 26.9957 82.0529 main 0 0 _________OP___ -1 27.1000 81.5000 TC 30 26.9436 82.3293 1 12 282
1899194N23089 1899 17 NI BB NOT_NAMED 1899-07-16 03:00:00 NR 27.1000 81.5000 main 0 __________O___ -1 TC 27.1000 81.5000 1 10 282

IBTrACS Databaseについて

本データベースは、米国NOAAが公開する1842年以降の世界の熱帯低気圧のベストトラックデータアーカイブInternational Best Track Archive for Climate Stewardship (IBTrACS)を、ウェブで閲覧しやすい形式に変換したものです。

最終更新日:2021-10-21